sensor_id;sensor_type;location;lat;lon;timestamp;P1;durP1;ratioP1;P2;durP2;ratioP2
3189;SDS011;1606;51.946;10.558;2022-11-14T00:01:06;51.43;;;26.17;;
3189;SDS011;1606;51.946;10.558;2022-11-14T00:03:36;48.90;;;26.73;;
3189;SDS011;1606;51.946;10.558;2022-11-14T00:06:05;52.60;;;26.90;;
3189;SDS011;1606;51.946;10.558;2022-11-14T00:08:34;52.50;;;27.37;;
3189;SDS011;1606;51.946;10.558;2022-11-14T00:11:02;51.50;;;25.30;;
3189;SDS011;1606;51.946;10.558;2022-11-14T00:13:30;50.43;;;28.80;;
3189;SDS011;1606;51.946;10.558;2022-11-14T00:15:58;52.47;;;28.57;;
3189;SDS011;1606;51.946;10.558;2022-11-14T00:18:25;49.57;;;27.10;;
3189;SDS011;1606;51.946;10.558;2022-11-14T00:20:55;49.27;;;27.17;;
3189;SDS011;1606;51.946;10.558;2022-11-14T00:23:23;52.07;;;26.60;;
3189;SDS011;1606;51.946;10.558;2022-11-14T00:25:51;51.33;;;28.90;;
3189;SDS011;1606;51.946;10.558;2022-11-14T00:28:19;50.17;;;28.07;;
3189;SDS011;1606;51.946;10.558;2022-11-14T00:30:47;53.13;;;26.23;;
3189;SDS011;1606;51.946;10.558;2022-11-14T00:33:17;46.17;;;24.73;;
3189;SDS011;1606;51.946;10.558;2022-11-14T00:35:50;42.97;;;24.30;;
3189;SDS011;1606;51.946;10.558;2022-11-14T00:38:20;47.30;;;25.33;;
3189;SDS011;1606;51.946;10.558;2022-11-14T00:40:48;50.13;;;25.70;;
3189;SDS011;1606;51.946;10.558;2022-11-14T00:43:16;47.70;;;23.60;;
3189;SDS011;1606;51.946;10.558;2022-11-14T00:45:44;49.53;;;26.17;;
3189;SDS011;1606;51.946;10.558;2022-11-14T00:48:13;51.63;;;27.93;;
3189;SDS011;1606;51.946;10.558;2022-11-14T00:50:41;58.43;;;28.50;;
3189;SDS011;1606;51.946;10.558;2022-11-14T00:53:09;54.17;;;28.50;;
3189;SDS011;1606;51.946;10.558;2022-11-14T00:55:39;52.00;;;27.73;;
3189;SDS011;1606;51.946;10.558;2022-11-14T00:58:07;52.70;;;27.40;;
3189;SDS011;1606;51.946;10.558;2022-11-14T01:00:35;55.47;;;25.97;;
3189;SDS011;1606;51.946;10.558;2022-11-14T01:03:03;50.83;;;25.70;;
3189;SDS011;1606;51.946;10.558;2022-11-14T01:05:31;45.97;;;25.17;;
3189;SDS011;1606;51.946;10.558;2022-11-14T01:07:59;53.23;;;26.50;;
3189;SDS011;1606;51.946;10.558;2022-11-14T01:10:27;41.43;;;23.60;;
3189;SDS011;1606;51.946;10.558;2022-11-14T01:12:56;45.43;;;23.00;;
3189;SDS011;1606;51.946;10.558;2022-11-14T01:15:24;45.20;;;24.90;;
3189;SDS011;1606;51.946;10.558;2022-11-14T01:17:52;48.13;;;26.30;;
3189;SDS011;1606;51.946;10.558;2022-11-14T01:20:19;41.50;;;22.67;;
3189;SDS011;1606;51.946;10.558;2022-11-14T01:22:47;45.50;;;25.57;;
3189;SDS011;1606;51.946;10.558;2022-11-14T01:25:15;46.97;;;25.67;;
3189;SDS011;1606;51.946;10.558;2022-11-14T01:27:43;39.33;;;22.50;;
3189;SDS011;1606;51.946;10.558;2022-11-14T01:30:12;50.10;;;24.93;;
3189;SDS011;1606;51.946;10.558;2022-11-14T01:32:41;45.77;;;24.97;;
3189;SDS011;1606;51.946;10.558;2022-11-14T01:35:08;53.40;;;26.93;;
3189;SDS011;1606;51.946;10.558;2022-11-14T01:37:36;47.27;;;26.37;;
3189;SDS011;1606;51.946;10.558;2022-11-14T01:40:04;41.97;;;23.27;;
3189;SDS011;1606;51.946;10.558;2022-11-14T01:42:33;40.90;;;23.50;;
3189;SDS011;1606;51.946;10.558;2022-11-14T01:48:05;48.60;;;25.80;;
3189;SDS011;1606;51.946;10.558;2022-11-14T01:50:44;48.73;;;25.53;;
3189;SDS011;1606;51.946;10.558;2022-11-14T01:53:12;40.33;;;22.30;;
3189;SDS011;1606;51.946;10.558;2022-11-14T01:55:40;43.57;;;22.87;;
3189;SDS011;1606;51.946;10.558;2022-11-14T01:58:08;44.10;;;25.87;;
3189;SDS011;1606;51.946;10.558;2022-11-14T02:00:36;42.30;;;24.23;;
3189;SDS011;1606;51.946;10.558;2022-11-14T02:03:06;40.30;;;20.97;;
3189;SDS011;1606;51.946;10.558;2022-11-14T02:05:33;44.53;;;23.30;;
3189;SDS011;1606;51.946;10.558;2022-11-14T02:08:02;38.50;;;22.00;;
3189;SDS011;1606;51.946;10.558;2022-11-14T02:10:29;47.60;;;23.13;;
3189;SDS011;1606;51.946;10.558;2022-11-14T02:12:57;40.10;;;22.03;;
3189;SDS011;1606;51.946;10.558;2022-11-14T02:15:25;37.90;;;21.33;;
3189;SDS011;1606;51.946;10.558;2022-11-14T02:17:53;44.27;;;22.90;;
3189;SDS011;1606;51.946;10.558;2022-11-14T02:20:23;39.83;;;21.93;;
3189;SDS011;1606;51.946;10.558;2022-11-14T02:22:53;42.27;;;24.20;;
3189;SDS011;1606;51.946;10.558;2022-11-14T02:25:21;39.50;;;22.20;;
3189;SDS011;1606;51.946;10.558;2022-11-14T02:27:49;41.40;;;22.83;;
3189;SDS011;1606;51.946;10.558;2022-11-14T02:30:18;38.40;;;20.70;;
3189;SDS011;1606;51.946;10.558;2022-11-14T02:32:48;39.77;;;20.03;;
3189;SDS011;1606;51.946;10.558;2022-11-14T02:35:37;39.83;;;22.37;;
3189;SDS011;1606;51.946;10.558;2022-11-14T02:38:05;38.37;;;20.27;;
3189;SDS011;1606;51.946;10.558;2022-11-14T02:40:33;40.07;;;21.33;;
3189;SDS011;1606;51.946;10.558;2022-11-14T02:43:01;33.87;;;19.23;;
3189;SDS011;1606;51.946;10.558;2022-11-14T02:45:29;35.00;;;19.80;;
3189;SDS011;1606;51.946;10.558;2022-11-14T02:47:57;36.97;;;20.30;;
3189;SDS011;1606;51.946;10.558;2022-11-14T02:50:24;41.33;;;21.47;;
3189;SDS011;1606;51.946;10.558;2022-11-14T02:52:54;37.07;;;21.40;;
3189;SDS011;1606;51.946;10.558;2022-11-14T02:55:21;33.83;;;19.13;;
3189;SDS011;1606;51.946;10.558;2022-11-14T02:57:49;33.50;;;18.63;;
3189;SDS011;1606;51.946;10.558;2022-11-14T03:00:17;37.23;;;20.47;;
3189;SDS011;1606;51.946;10.558;2022-11-14T03:02:45;36.03;;;18.03;;
3189;SDS011;1606;51.946;10.558;2022-11-14T03:05:13;34.43;;;19.47;;
3189;SDS011;1606;51.946;10.558;2022-11-14T03:07:41;35.87;;;20.20;;
3189;SDS011;1606;51.946;10.558;2022-11-14T03:10:10;35.87;;;18.00;;
3189;SDS011;1606;51.946;10.558;2022-11-14T03:12:39;38.30;;;19.90;;
3189;SDS011;1606;51.946;10.558;2022-11-14T03:15:07;34.63;;;19.70;;
3189;SDS011;1606;51.946;10.558;2022-11-14T03:17:36;34.90;;;18.60;;
3189;SDS011;1606;51.946;10.558;2022-11-14T03:20:04;32.47;;;18.03;;
3189;SDS011;1606;51.946;10.558;2022-11-14T03:22:32;34.87;;;19.03;;
3189;SDS011;1606;51.946;10.558;2022-11-14T03:25:00;34.73;;;19.43;;
3189;SDS011;1606;51.946;10.558;2022-11-14T03:27:29;29.73;;;17.20;;
3189;SDS011;1606;51.946;10.558;2022-11-14T03:29:57;32.10;;;19.30;;
3189;SDS011;1606;51.946;10.558;2022-11-14T03:32:25;32.93;;;16.00;;
3189;SDS011;1606;51.946;10.558;2022-11-14T03:34:53;34.30;;;17.70;;
3189;SDS011;1606;51.946;10.558;2022-11-14T03:37:21;31.77;;;17.00;;
3189;SDS011;1606;51.946;10.558;2022-11-14T03:39:49;33.27;;;16.37;;
3189;SDS011;1606;51.946;10.558;2022-11-14T03:42:17;34.63;;;19.67;;
3189;SDS011;1606;51.946;10.558;2022-11-14T03:44:46;30.90;;;17.97;;
3189;SDS011;1606;51.946;10.558;2022-11-14T03:47:14;30.73;;;18.27;;
3189;SDS011;1606;51.946;10.558;2022-11-14T03:49:41;33.10;;;17.70;;
3189;SDS011;1606;51.946;10.558;2022-11-14T03:52:10;35.07;;;17.87;;
3189;SDS011;1606;51.946;10.558;2022-11-14T03:54:38;40.93;;;18.30;;
3189;SDS011;1606;51.946;10.558;2022-11-14T03:57:06;36.20;;;19.37;;
3189;SDS011;1606;51.946;10.558;2022-11-14T03:59:33;34.93;;;19.10;;
3189;SDS011;1606;51.946;10.558;2022-11-14T04:02:03;32.37;;;19.07;;
3189;SDS011;1606;51.946;10.558;2022-11-14T04:04:30;34.60;;;19.00;;
3189;SDS011;1606;51.946;10.558;2022-11-14T04:06:58;36.83;;;19.63;;
3189;SDS011;1606;51.946;10.558;2022-11-14T04:09:26;37.73;;;18.40;;
3189;SDS011;1606;51.946;10.558;2022-11-14T04:11:54;33.83;;;17.17;;
3189;SDS011;1606;51.946;10.558;2022-11-14T04:14:22;33.90;;;17.50;;
3189;SDS011;1606;51.946;10.558;2022-11-14T04:16:50;39.40;;;18.43;;
3189;SDS011;1606;51.946;10.558;2022-11-14T04:19:19;39.23;;;19.50;;
3189;SDS011;1606;51.946;10.558;2022-11-14T04:21:47;35.37;;;19.10;;
3189;SDS011;1606;51.946;10.558;2022-11-14T04:24:15;31.70;;;17.90;;
3189;SDS011;1606;51.946;10.558;2022-11-14T04:26:42;34.97;;;20.97;;
3189;SDS011;1606;51.946;10.558;2022-11-14T04:29:10;30.47;;;17.93;;
3189;SDS011;1606;51.946;10.558;2022-11-14T04:31:38;33.13;;;18.60;;
3189;SDS011;1606;51.946;10.558;2022-11-14T04:34:06;32.93;;;17.07;;
3189;SDS011;1606;51.946;10.558;2022-11-14T04:36:35;37.33;;;20.70;;
3189;SDS011;1606;51.946;10.558;2022-11-14T04:39:03;34.97;;;20.07;;
3189;SDS011;1606;51.946;10.558;2022-11-14T04:41:31;33.10;;;18.93;;
3189;SDS011;1606;51.946;10.558;2022-11-14T04:43:59;37.50;;;19.53;;
3189;SDS011;1606;51.946;10.558;2022-11-14T04:46:27;36.27;;;17.00;;
3189;SDS011;1606;51.946;10.558;2022-11-14T04:48:55;35.33;;;18.63;;
3189;SDS011;1606;51.946;10.558;2022-11-14T04:51:23;36.90;;;18.53;;
3189;SDS011;1606;51.946;10.558;2022-11-14T04:53:52;37.17;;;19.33;;
3189;SDS011;1606;51.946;10.558;2022-11-14T04:56:20;42.40;;;19.37;;
3189;SDS011;1606;51.946;10.558;2022-11-14T04:58:48;38.57;;;21.43;;
3189;SDS011;1606;51.946;10.558;2022-11-14T05:01:16;41.47;;;20.17;;
3189;SDS011;1606;51.946;10.558;2022-11-14T05:03:44;39.07;;;20.00;;
3189;SDS011;1606;51.946;10.558;2022-11-14T05:06:12;40.27;;;19.30;;
3189;SDS011;1606;51.946;10.558;2022-11-14T05:08:40;35.33;;;19.77;;
3189;SDS011;1606;51.946;10.558;2022-11-14T05:11:13;36.97;;;18.70;;
3189;SDS011;1606;51.946;10.558;2022-11-14T05:13:41;40.67;;;20.70;;
3189;SDS011;1606;51.946;10.558;2022-11-14T05:16:09;48.80;;;19.97;;
3189;SDS011;1606;51.946;10.558;2022-11-14T05:18:38;41.30;;;20.70;;
3189;SDS011;1606;51.946;10.558;2022-11-14T05:21:12;37.80;;;19.03;;
3189;SDS011;1606;51.946;10.558;2022-11-14T05:23:41;38.50;;;19.77;;
3189;SDS011;1606;51.946;10.558;2022-11-14T05:26:09;37.77;;;19.90;;
3189;SDS011;1606;51.946;10.558;2022-11-14T05:28:39;38.50;;;20.37;;
3189;SDS011;1606;51.946;10.558;2022-11-14T05:31:08;37.77;;;20.47;;
3189;SDS011;1606;51.946;10.558;2022-11-14T05:33:37;39.03;;;17.93;;
3189;SDS011;1606;51.946;10.558;2022-11-14T05:36:06;39.50;;;21.17;;
3189;SDS011;1606;51.946;10.558;2022-11-14T05:38:35;35.67;;;19.40;;
3189;SDS011;1606;51.946;10.558;2022-11-14T05:41:06;35.47;;;18.97;;
3189;SDS011;1606;51.946;10.558;2022-11-14T05:43:35;35.83;;;20.33;;
3189;SDS011;1606;51.946;10.558;2022-11-14T05:46:05;49.63;;;21.90;;
3189;SDS011;1606;51.946;10.558;2022-11-14T05:48:35;33.67;;;19.10;;
3189;SDS011;1606;51.946;10.558;2022-11-14T05:51:04;42.23;;;17.27;;
3189;SDS011;1606;51.946;10.558;2022-11-14T05:53:34;33.23;;;18.13;;
3189;SDS011;1606;51.946;10.558;2022-11-14T05:56:02;39.57;;;19.30;;
3189;SDS011;1606;51.946;10.558;2022-11-14T05:58:32;33.50;;;18.47;;
3189;SDS011;1606;51.946;10.558;2022-11-14T06:01:01;38.97;;;20.13;;
3189;SDS011;1606;51.946;10.558;2022-11-14T06:03:32;35.97;;;18.83;;
3189;SDS011;1606;51.946;10.558;2022-11-14T06:06:00;38.43;;;19.67;;
3189;SDS011;1606;51.946;10.558;2022-11-14T06:08:29;36.97;;;19.33;;
3189;SDS011;1606;51.946;10.558;2022-11-14T06:11:00;40.93;;;22.00;;
3189;SDS011;1606;51.946;10.558;2022-11-14T06:13:29;35.10;;;17.77;;
3189;SDS011;1606;51.946;10.558;2022-11-14T06:15:58;38.87;;;20.17;;
3189;SDS011;1606;51.946;10.558;2022-11-14T06:18:27;33.47;;;19.70;;
3189;SDS011;1606;51.946;10.558;2022-11-14T06:20:58;31.87;;;18.50;;
3189;SDS011;1606;51.946;10.558;2022-11-14T06:23:27;34.30;;;18.70;;
3189;SDS011;1606;51.946;10.558;2022-11-14T06:25:58;38.23;;;20.00;;
3189;SDS011;1606;51.946;10.558;2022-11-14T06:28:26;45.40;;;22.10;;
3189;SDS011;1606;51.946;10.558;2022-11-14T06:30:56;36.87;;;19.90;;
3189;SDS011;1606;51.946;10.558;2022-11-14T06:33:24;41.10;;;20.93;;
3189;SDS011;1606;51.946;10.558;2022-11-14T06:35:56;40.80;;;21.67;;
3189;SDS011;1606;51.946;10.558;2022-11-14T06:38:26;38.43;;;20.00;;
3189;SDS011;1606;51.946;10.558;2022-11-14T06:41:00;42.50;;;20.03;;
3189;SDS011;1606;51.946;10.558;2022-11-14T06:43:30;44.07;;;21.80;;
3189;SDS011;1606;51.946;10.558;2022-11-14T06:45:59;41.80;;;21.10;;
3189;SDS011;1606;51.946;10.558;2022-11-14T06:48:28;42.73;;;20.53;;
3189;SDS011;1606;51.946;10.558;2022-11-14T06:50:57;37.60;;;20.30;;
3189;SDS011;1606;51.946;10.558;2022-11-14T06:53:28;41.23;;;22.03;;
3189;SDS011;1606;51.946;10.558;2022-11-14T06:55:57;47.87;;;22.53;;
3189;SDS011;1606;51.946;10.558;2022-11-14T06:58:27;40.13;;;19.77;;
3189;SDS011;1606;51.946;10.558;2022-11-14T07:01:01;43.53;;;21.30;;
3189;SDS011;1606;51.946;10.558;2022-11-14T07:03:30;42.17;;;19.93;;
3189;SDS011;1606;51.946;10.558;2022-11-14T07:05:58;41.57;;;21.10;;
3189;SDS011;1606;51.946;10.558;2022-11-14T07:08:27;43.23;;;21.73;;
3189;SDS011;1606;51.946;10.558;2022-11-14T07:10:59;44.87;;;21.60;;
3189;SDS011;1606;51.946;10.558;2022-11-14T07:13:28;46.30;;;24.13;;
3189;SDS011;1606;51.946;10.558;2022-11-14T07:15:56;43.63;;;25.20;;
3189;SDS011;1606;51.946;10.558;2022-11-14T07:18:24;45.83;;;22.13;;
3189;SDS011;1606;51.946;10.558;2022-11-14T07:20:56;42.00;;;21.67;;
3189;SDS011;1606;51.946;10.558;2022-11-14T07:23:25;51.67;;;24.80;;
3189;SDS011;1606;51.946;10.558;2022-11-14T07:25:54;37.23;;;20.10;;
3189;SDS011;1606;51.946;10.558;2022-11-14T07:28:26;41.63;;;22.13;;
3189;SDS011;1606;51.946;10.558;2022-11-14T07:30:54;45.00;;;24.30;;
3189;SDS011;1606;51.946;10.558;2022-11-14T07:33:22;44.43;;;22.73;;
3189;SDS011;1606;51.946;10.558;2022-11-14T07:35:50;44.43;;;21.97;;
3189;SDS011;1606;51.946;10.558;2022-11-14T07:38:18;47.10;;;21.83;;
3189;SDS011;1606;51.946;10.558;2022-11-14T07:40:51;44.10;;;21.67;;
3189;SDS011;1606;51.946;10.558;2022-11-14T07:43:26;40.30;;;21.67;;
3189;SDS011;1606;51.946;10.558;2022-11-14T07:45:57;40.33;;;21.07;;
3189;SDS011;1606;51.946;10.558;2022-11-14T07:48:25;46.37;;;25.17;;
3189;SDS011;1606;51.946;10.558;2022-11-14T07:50:56;45.23;;;21.67;;
3189;SDS011;1606;51.946;10.558;2022-11-14T07:53:25;38.30;;;20.00;;
3189;SDS011;1606;51.946;10.558;2022-11-14T07:55:53;40.77;;;21.10;;
3189;SDS011;1606;51.946;10.558;2022-11-14T07:58:21;43.00;;;21.90;;
3189;SDS011;1606;51.946;10.558;2022-11-14T08:00:51;46.00;;;22.00;;
3189;SDS011;1606;51.946;10.558;2022-11-14T08:03:19;46.30;;;21.17;;
3189;SDS011;1606;51.946;10.558;2022-11-14T08:05:47;44.53;;;23.00;;
3189;SDS011;1606;51.946;10.558;2022-11-14T08:08:15;44.50;;;21.90;;
3189;SDS011;1606;51.946;10.558;2022-11-14T08:10:42;45.05;;;26.27;;
3189;SDS011;1606;51.946;10.558;2022-11-14T08:13:10;37.57;;;21.93;;
3189;SDS011;1606;51.946;10.558;2022-11-14T08:16:02;36.20;;;19.50;;
3189;SDS011;1606;51.946;10.558;2022-11-14T08:18:37;39.53;;;20.90;;
3189;SDS011;1606;51.946;10.558;2022-11-14T08:21:05;41.93;;;21.37;;
3189;SDS011;1606;51.946;10.558;2022-11-14T08:23:33;38.27;;;21.30;;
3189;SDS011;1606;51.946;10.558;2022-11-14T08:26:01;39.33;;;19.73;;
3189;SDS011;1606;51.946;10.558;2022-11-14T08:28:29;36.97;;;20.57;;
3189;SDS011;1606;51.946;10.558;2022-11-14T08:30:59;39.60;;;21.23;;
3189;SDS011;1606;51.946;10.558;2022-11-14T08:33:31;40.87;;;21.27;;
3189;SDS011;1606;51.946;10.558;2022-11-14T08:35:59;35.50;;;17.90;;
3189;SDS011;1606;51.946;10.558;2022-11-14T08:38:27;33.07;;;18.90;;
3189;SDS011;1606;51.946;10.558;2022-11-14T08:40:57;44.23;;;21.40;;
3189;SDS011;1606;51.946;10.558;2022-11-14T08:43:25;37.40;;;19.77;;
3189;SDS011;1606;51.946;10.558;2022-11-14T08:45:55;34.80;;;18.90;;
3189;SDS011;1606;51.946;10.558;2022-11-14T08:48:28;33.00;;;17.37;;
3189;SDS011;1606;51.946;10.558;2022-11-14T08:51:00;38.30;;;19.87;;
3189;SDS011;1606;51.946;10.558;2022-11-14T08:53:29;31.13;;;16.50;;
3189;SDS011;1606;51.946;10.558;2022-11-14T08:55:58;31.87;;;16.57;;
3189;SDS011;1606;51.946;10.558;2022-11-14T08:58:26;31.50;;;16.50;;
3189;SDS011;1606;51.946;10.558;2022-11-14T09:01:00;30.97;;;15.07;;
3189;SDS011;1606;51.946;10.558;2022-11-14T09:03:29;30.83;;;17.17;;
3189;SDS011;1606;51.946;10.558;2022-11-14T09:05:58;31.87;;;16.67;;
3189;SDS011;1606;51.946;10.558;2022-11-14T09:08:26;35.67;;;18.67;;
3189;SDS011;1606;51.946;10.558;2022-11-14T09:10:58;33.23;;;17.63;;
3189;SDS011;1606;51.946;10.558;2022-11-14T09:13:31;37.20;;;19.30;;
3189;SDS011;1606;51.946;10.558;2022-11-14T09:15:59;30.33;;;18.20;;
3189;SDS011;1606;51.946;10.558;2022-11-14T09:18:27;34.53;;;18.20;;
3189;SDS011;1606;51.946;10.558;2022-11-14T09:20:58;35.83;;;19.47;;
3189;SDS011;1606;51.946;10.558;2022-11-14T09:23:27;34.73;;;19.30;;
3189;SDS011;1606;51.946;10.558;2022-11-14T09:25:56;34.83;;;19.07;;
3189;SDS011;1606;51.946;10.558;2022-11-14T09:28:23;37.57;;;20.17;;
3189;SDS011;1606;51.946;10.558;2022-11-14T09:30:51;38.10;;;19.20;;
3189;SDS011;1606;51.946;10.558;2022-11-14T09:33:19;34.20;;;18.70;;
3189;SDS011;1606;51.946;10.558;2022-11-14T09:35:48;32.80;;;18.60;;
3189;SDS011;1606;51.946;10.558;2022-11-14T09:38:22;39.43;;;22.30;;
3189;SDS011;1606;51.946;10.558;2022-11-14T09:40:51;34.73;;;21.30;;
3189;SDS011;1606;51.946;10.558;2022-11-14T09:43:35;36.00;;;20.27;;
3189;SDS011;1606;51.946;10.558;2022-11-14T09:46:16;34.80;;;17.67;;
3189;SDS011;1606;51.946;10.558;2022-11-14T09:48:47;31.40;;;19.80;;
3189;SDS011;1606;51.946;10.558;2022-11-14T09:51:18;30.83;;;17.30;;
3189;SDS011;1606;51.946;10.558;2022-11-14T09:53:49;34.07;;;18.33;;
3189;SDS011;1606;51.946;10.558;2022-11-14T09:56:21;31.37;;;20.40;;
3189;SDS011;1606;51.946;10.558;2022-11-14T09:58:51;31.73;;;18.60;;
3189;SDS011;1606;51.946;10.558;2022-11-14T10:01:26;30.40;;;19.10;;
3189;SDS011;1606;51.946;10.558;2022-11-14T10:04:02;36.37;;;20.10;;
3189;SDS011;1606;51.946;10.558;2022-11-14T10:06:41;32.97;;;19.20;;
3189;SDS011;1606;51.946;10.558;2022-11-14T10:09:31;34.53;;;19.13;;
3189;SDS011;1606;51.946;10.558;2022-11-14T10:12:11;35.37;;;20.73;;
3189;SDS011;1606;51.946;10.558;2022-11-14T10:14:47;36.00;;;20.87;;
3189;SDS011;1606;51.946;10.558;2022-11-14T10:20:22;38.37;;;20.40;;
3189;SDS011;1606;51.946;10.558;2022-11-14T10:23:07;35.23;;;21.97;;
3189;SDS011;1606;51.946;10.558;2022-11-14T10:25:50;38.83;;;23.00;;
3189;SDS011;1606;51.946;10.558;2022-11-14T10:28:32;40.47;;;22.83;;
3189;SDS011;1606;51.946;10.558;2022-11-14T10:31:13;42.63;;;22.93;;
3189;SDS011;1606;51.946;10.558;2022-11-14T10:33:49;39.40;;;23.87;;
3189;SDS011;1606;51.946;10.558;2022-11-14T10:36:27;44.63;;;26.37;;
3189;SDS011;1606;51.946;10.558;2022-11-14T10:39:10;43.20;;;25.10;;
3189;SDS011;1606;51.946;10.558;2022-11-14T10:41:44;46.07;;;23.47;;
3189;SDS011;1606;51.946;10.558;2022-11-14T10:44:25;44.20;;;25.70;;
3189;SDS011;1606;51.946;10.558;2022-11-14T10:47:00;39.20;;;23.83;;
3189;SDS011;1606;51.946;10.558;2022-11-14T10:49:30;44.43;;;24.67;;
3189;SDS011;1606;51.946;10.558;2022-11-14T10:52:02;44.20;;;24.30;;
3189;SDS011;1606;51.946;10.558;2022-11-14T10:54:35;37.03;;;21.93;;
3189;SDS011;1606;51.946;10.558;2022-11-14T10:57:12;38.20;;;23.80;;
3189;SDS011;1606;51.946;10.558;2022-11-14T10:59:42;42.03;;;23.90;;
3189;SDS011;1606;51.946;10.558;2022-11-14T11:02:10;39.23;;;24.50;;
3189;SDS011;1606;51.946;10.558;2022-11-14T11:04:38;44.03;;;24.53;;
3189;SDS011;1606;51.946;10.558;2022-11-14T11:07:21;40.47;;;23.23;;
3189;SDS011;1606;51.946;10.558;2022-11-14T11:10:37;41.80;;;23.93;;
3189;SDS011;1606;51.946;10.558;2022-11-14T11:13:29;46.20;;;26.10;;
3189;SDS011;1606;51.946;10.558;2022-11-14T11:16:00;39.77;;;22.37;;
3189;SDS011;1606;51.946;10.558;2022-11-14T11:18:30;44.93;;;26.40;;
3189;SDS011;1606;51.946;10.558;2022-11-14T11:21:00;41.97;;;25.50;;
3189;SDS011;1606;51.946;10.558;2022-11-14T11:23:30;43.17;;;26.83;;
3189;SDS011;1606;51.946;10.558;2022-11-14T11:26:00;45.80;;;24.77;;
3189;SDS011;1606;51.946;10.558;2022-11-14T11:28:33;41.53;;;24.17;;
3189;SDS011;1606;51.946;10.558;2022-11-14T11:31:04;38.40;;;22.13;;
3189;SDS011;1606;51.946;10.558;2022-11-14T11:33:33;36.93;;;24.97;;
3189;SDS011;1606;51.946;10.558;2022-11-14T11:36:03;42.00;;;25.20;;
3189;SDS011;1606;51.946;10.558;2022-11-14T11:38:33;41.20;;;24.30;;
3189;SDS011;1606;51.946;10.558;2022-11-14T11:41:05;37.40;;;23.20;;
3189;SDS011;1606;51.946;10.558;2022-11-14T11:44:06;39.33;;;23.13;;
3189;SDS011;1606;51.946;10.558;2022-11-14T11:46:40;40.47;;;22.87;;
3189;SDS011;1606;51.946;10.558;2022-11-14T11:49:14;41.63;;;21.67;;
3189;SDS011;1606;51.946;10.558;2022-11-14T11:51:46;38.57;;;22.20;;
3189;SDS011;1606;51.946;10.558;2022-11-14T11:54:21;38.63;;;21.27;;
3189;SDS011;1606;51.946;10.558;2022-11-14T11:57:00;31.47;;;19.00;;
3189;SDS011;1606;51.946;10.558;2022-11-14T11:59:32;38.37;;;22.40;;
3189;SDS011;1606;51.946;10.558;2022-11-14T12:02:10;37.20;;;21.93;;
3189;SDS011;1606;51.946;10.558;2022-11-14T12:04:48;35.50;;;21.73;;
3189;SDS011;1606;51.946;10.558;2022-11-14T12:07:17;38.13;;;22.80;;
3189;SDS011;1606;51.946;10.558;2022-11-14T12:09:48;39.37;;;25.57;;
3189;SDS011;1606;51.946;10.558;2022-11-14T12:12:44;37.33;;;22.10;;
3189;SDS011;1606;51.946;10.558;2022-11-14T12:15:50;44.60;;;24.37;;
3189;SDS011;1606;51.946;10.558;2022-11-14T12:18:40;36.77;;;21.10;;
3189;SDS011;1606;51.946;10.558;2022-11-14T12:21:25;40.50;;;23.47;;
3189;SDS011;1606;51.946;10.558;2022-11-14T12:24:20;36.27;;;22.40;;
3189;SDS011;1606;51.946;10.558;2022-11-14T12:27:24;40.90;;;23.97;;
3189;SDS011;1606;51.946;10.558;2022-11-14T12:30:09;35.33;;;20.70;;
3189;SDS011;1606;51.946;10.558;2022-11-14T12:32:41;36.50;;;21.97;;
3189;SDS011;1606;51.946;10.558;2022-11-14T12:35:16;34.30;;;19.87;;
3189;SDS011;1606;51.946;10.558;2022-11-14T12:37:48;33.43;;;20.87;;
3189;SDS011;1606;51.946;10.558;2022-11-14T12:40:28;33.03;;;20.07;;
3189;SDS011;1606;51.946;10.558;2022-11-14T12:42:58;38.17;;;21.97;;
3189;SDS011;1606;51.946;10.558;2022-11-14T12:48:33;34.60;;;20.73;;
3189;SDS011;1606;51.946;10.558;2022-11-14T12:51:03;37.20;;;22.00;;
3189;SDS011;1606;51.946;10.558;2022-11-14T12:53:39;34.30;;;22.30;;
3189;SDS011;1606;51.946;10.558;2022-11-14T12:56:17;32.53;;;20.47;;
3189;SDS011;1606;51.946;10.558;2022-11-14T12:59:05;37.23;;;22.07;;
3189;SDS011;1606;51.946;10.558;2022-11-14T13:01:48;33.50;;;20.93;;
3189;SDS011;1606;51.946;10.558;2022-11-14T13:04:34;34.43;;;20.23;;
3189;SDS011;1606;51.946;10.558;2022-11-14T13:07:18;35.20;;;22.67;;
3189;SDS011;1606;51.946;10.558;2022-11-14T13:10:10;34.23;;;20.73;;
3189;SDS011;1606;51.946;10.558;2022-11-14T13:12:41;35.73;;;22.10;;
3189;SDS011;1606;51.946;10.558;2022-11-14T13:15:44;31.67;;;20.67;;
3189;SDS011;1606;51.946;10.558;2022-11-14T13:18:34;33.17;;;20.53;;
3189;SDS011;1606;51.946;10.558;2022-11-14T13:21:21;34.93;;;22.00;;
3189;SDS011;1606;51.946;10.558;2022-11-14T13:24:12;35.50;;;21.47;;
3189;SDS011;1606;51.946;10.558;2022-11-14T13:26:48;35.03;;;19.37;;
3189;SDS011;1606;51.946;10.558;2022-11-14T13:35:22;31.53;;;19.27;;
3189;SDS011;1606;51.946;10.558;2022-11-14T13:38:02;28.37;;;17.77;;
3189;SDS011;1606;51.946;10.558;2022-11-14T13:40:45;33.57;;;21.20;;
3189;SDS011;1606;51.946;10.558;2022-11-14T13:43:23;38.00;;;21.63;;
3189;SDS011;1606;51.946;10.558;2022-11-14T13:46:00;33.90;;;20.20;;
3189;SDS011;1606;51.946;10.558;2022-11-14T13:48:41;31.33;;;21.17;;
3189;SDS011;1606;51.946;10.558;2022-11-14T13:51:24;29.20;;;19.83;;
3189;SDS011;1606;51.946;10.558;2022-11-14T13:54:09;32.47;;;20.23;;
3189;SDS011;1606;51.946;10.558;2022-11-14T13:56:46;33.40;;;21.80;;
3189;SDS011;1606;51.946;10.558;2022-11-14T14:02:26;33.43;;;21.37;;
3189;SDS011;1606;51.946;10.558;2022-11-14T14:05:21;37.13;;;22.10;;
3189;SDS011;1606;51.946;10.558;2022-11-14T14:08:00;35.10;;;21.70;;
3189;SDS011;1606;51.946;10.558;2022-11-14T14:10:39;32.30;;;20.90;;
3189;SDS011;1606;51.946;10.558;2022-11-14T14:13:12;32.90;;;20.57;;
3189;SDS011;1606;51.946;10.558;2022-11-14T14:15:48;33.13;;;21.97;;
3189;SDS011;1606;51.946;10.558;2022-11-14T14:18:32;34.27;;;21.80;;
3189;SDS011;1606;51.946;10.558;2022-11-14T14:21:12;36.17;;;21.00;;
3189;SDS011;1606;51.946;10.558;2022-11-14T14:23:55;30.37;;;20.03;;
3189;SDS011;1606;51.946;10.558;2022-11-14T14:26:32;37.23;;;22.73;;
3189;SDS011;1606;51.946;10.558;2022-11-14T14:29:13;34.27;;;23.50;;
3189;SDS011;1606;51.946;10.558;2022-11-14T14:31:47;33.37;;;21.53;;
3189;SDS011;1606;51.946;10.558;2022-11-14T14:34:19;33.30;;;23.10;;
3189;SDS011;1606;51.946;10.558;2022-11-14T14:36:48;37.87;;;23.90;;
3189;SDS011;1606;51.946;10.558;2022-11-14T14:39:19;34.60;;;21.90;;
3189;SDS011;1606;51.946;10.558;2022-11-14T14:41:50;34.97;;;22.10;;
3189;SDS011;1606;51.946;10.558;2022-11-14T14:44:22;37.13;;;22.23;;
3189;SDS011;1606;51.946;10.558;2022-11-14T14:46:52;34.83;;;21.00;;
3189;SDS011;1606;51.946;10.558;2022-11-14T14:49:21;31.57;;;21.30;;
3189;SDS011;1606;51.946;10.558;2022-11-14T14:51:51;30.57;;;20.60;;
3189;SDS011;1606;51.946;10.558;2022-11-14T14:54:25;40.30;;;21.87;;
3189;SDS011;1606;51.946;10.558;2022-11-14T14:56:56;33.07;;;21.63;;
3189;SDS011;1606;51.946;10.558;2022-11-14T14:59:27;35.30;;;20.97;;
3189;SDS011;1606;51.946;10.558;2022-11-14T15:01:56;33.40;;;19.80;;
3189;SDS011;1606;51.946;10.558;2022-11-14T15:04:25;30.93;;;18.73;;
3189;SDS011;1606;51.946;10.558;2022-11-14T15:06:54;32.10;;;20.03;;
3189;SDS011;1606;51.946;10.558;2022-11-14T15:09:25;33.53;;;21.50;;
3189;SDS011;1606;51.946;10.558;2022-11-14T15:11:55;31.63;;;19.10;;
3189;SDS011;1606;51.946;10.558;2022-11-14T15:14:25;30.17;;;19.47;;
3189;SDS011;1606;51.946;10.558;2022-11-14T15:16:55;34.17;;;20.50;;
3189;SDS011;1606;51.946;10.558;2022-11-14T15:19:26;30.30;;;18.93;;